• Join FlightAware (Why Join?)
  • Login
  • US Flag 
09:44PM EDT


 

Airport Tracker/Info


-or-


 

Live Flight TrackerFlight Track Log ✈ SKW6534 ✈ 23-Apr-2013 ✈ KIDA - KDEN

Flight Track Log - Related Links

Times and Time Zones

All times are in EDT time to prevent confusion due to time zone crossing. See the SKW6534 flight status page for this flight to view local times or setup timezone preferences in your user account.

Time Position Orientation Groundspeed Altitude Reporting Facility
EDT Latitude Longitude Course Direction KTS MPH feet Rate Location/Type
03:54PM 43.4431 -111.9178 104° East 254 292 11,200  Level Salt Lake Center
03:55PM 43.2425 -111.5639 127° Southeast  Level FlightAware Approximate
03:55PM 43.3964 -111.8322 127° Southeast 280 322 13,900  Level Salt Lake Center
03:56PM 43.1792 -111.4480 127° Southeast  Level FlightAware Approximate
03:57PM 43.1161 -111.3320 122° Southeast  Level FlightAware Approximate
03:57PM 43.3342 -111.7189 127° Southeast 318 366 16,200  Level Salt Lake Center
03:58PM 43.0603 -111.2093 122° Southeast  Level FlightAware Approximate
03:58PM 43.2772 -111.6167 127° Southeast 339 390 17,700  Level Salt Lake Center
03:59PM 42.9983 -111.0928 130° Southeast  Level FlightAware Approximate
03:59PM 43.2072 -111.4867 126° Southeast 371 427 19,700  Level Salt Lake Center
04:00PM 43.1447 -111.3703 126° Southeast 391 450 21,400 1,800 Climbing Salt Lake Center
04:01PM 43.0711 -111.2328 126° Southeast 401 461 23,400 1,680 Climbing Salt Lake Center
04:02PM 43.0064 -111.1144 127° Southeast 406 467 24,900 1,200 Climbing Salt Lake Center
04:03PM 42.9389 -110.9919 127° Southeast 419 482 25,900 1,020 Climbing Salt Lake Center
04:04PM 42.8578 -110.8431 127° Southeast 435 501 27,000 480 Climbing Salt Lake Center
04:05PM 42.7836 -110.7131 128° Southeast 452 520 27,000  Level Salt Lake Center
04:06PM 42.6983 -110.5611 127° Southeast 478 550 27,000  Level Salt Lake Center
04:07PM 42.6078 -110.3964 127° Southeast 487 560 27,000  Level Salt Lake Center
04:08PM 42.5283 -110.2556 127° Southeast 492 566 27,000  Level Salt Lake Center
04:09PM 42.4486 -110.1139 127° Southeast 494 568 27,000  Level Salt Lake Center
04:10PM 42.3553 -109.9500 128° Southeast 493 567 27,000  Level Salt Lake Center
04:11PM 42.2744 -109.8092 128° Southeast 495 570 27,000  Level Salt Lake Center
04:12PM 42.1808 -109.6450 128° Southeast 495 570 27,000  Level Salt Lake Center
04:13PM 42.0994 -109.5042 128° Southeast 496 571 27,000  Level Salt Lake Center
04:14PM 42.0044 -109.3397 128° Southeast 497 572 27,000  Level Salt Lake Center
04:15PM 41.9231 -109.1992 128° Southeast 497 572 27,000  Level Salt Lake Center
04:16PM 41.8411 -109.0589 128° Southeast 496 571 27,000  Level Salt Lake Center
04:17PM 41.7494 -108.9022 128° Southeast 478 550 27,000  Level Salt Lake Center
04:18PM 41.6717 -108.7692 128° Southeast 472 543 27,000  Level Salt Lake Center
04:19PM 41.5947 -108.6381 128° Southeast 467 537 27,000  Level Salt Lake Center
04:20PM 41.5036 -108.4864 129° Southeast 466 536 27,000  Level Salt Lake Center
04:21PM 41.4269 -108.3572 128° Southeast 464 534 27,000  Level Salt Lake Center
04:22PM 41.3381 -108.2042 128° Southeast 467 537 27,000  Level Salt Lake Center
04:23PM 41.3108 -108.1300 116° Southeast 459 528 27,000  Level Denver Center
04:23PM 41.2647 -108.0767 139° Southeast 462 532 27,000  Level Salt Lake Center
04:24PM 41.1633 -107.9853 146° Southeast 460 529 27,000  Level Salt Lake Center
04:25PM 41.0956 -107.9225 145° Southeast 460 529 27,000  Level Denver Center
04:27PM 40.8531 -107.7986 159° South 457 526 27,000  Level Denver Center
04:28PM 40.8053 -107.6539 114° Southeast 454 522 27,000  Level Denver Center
04:29PM 40.7703 -107.4719 104° East 459 528 27,000  Level Denver Center
04:30PM 40.7403 -107.3119 104° East 460 529 27,000  Level Denver Center
04:31PM 40.7067 -107.1469 105° East 461 531 27,000  Level Denver Center
04:32PM 40.6753 -106.9811 104° East 463 533 27,000  Level Denver Center
04:33PM 40.6417 -106.8164 105° East 464 534 27,000  Level Denver Center
04:34PM 40.6089 -106.6506 105° East 465 535 27,000  Level Denver Center
04:35PM 40.5728 -106.4736 105° East 463 533 27,000 -180 Level Denver Center
04:36PM 40.5350 -106.2903 105° East 465 535 26,700 -720 Descending Denver Center
04:37PM 40.5047 -106.1392 105° East 457 526 25,600 -1,080 Descending Denver Center
04:38PM 40.4744 -105.9931 105° East 415 478 24,500 -1,020 Descending Denver Center
04:39PM 40.4447 -105.8575 106° East 385 443 23,500 -1,020 Descending Denver Center
04:40PM 40.4114 -105.7014 106° East 379 436 22,400 -1,020 Descending Denver Center
04:41PM 40.3836 -105.5706 106° East 371 427 21,500 -1,020 Descending Denver Center
04:42PM 40.3550 -105.4381 106° East 369 425 20,400 -1,320 Descending Denver Center
04:45PM 40.2167 -105.2167 129° Southeast 337 388 17,200 -1,500 Descending Denver TRACON
04:46PM 40.1667 -105.1333 128° Southeast 335 386 15,500 -1,320 Descending Denver TRACON
04:47PM 40.1000 -105.0333 131° Southeast 321 369 14,600 -900 Descending Denver TRACON
04:48PM 40.0500 -104.9500 128° Southeast 317 365 13,800 -840 Descending Denver TRACON
04:49PM 39.9833 -104.8667 136° Southeast 321 369 13,000 -960 Descending Denver TRACON
04:50PM 39.9000 -104.8000 148° Southeast 306 352 11,800 -900 Descending Denver TRACON
04:51PM 39.8167 -104.8167 189° South 276 318 11,200 -480 Descending Denver TRACON
04:52PM 39.7500 -104.8167 180° South 234 269 10,900 -660 Descending Denver TRACON
04:53PM 39.6833 -104.8167 180° South 225 259 9,900 -960 Descending Denver TRACON
04:54PM 39.6333 -104.8000 166° South 230 265 9,000 -480 Descending Denver TRACON
04:56PM 39.6500 -104.7000 78° East 196 226 8,600 -360 Descending Denver TRACON
04:57PM 39.7000 -104.6667 27° Northeast 187 215 8,100 -840 Descending Denver TRACON
04:58PM 39.7500 -104.6667 360° North 181 208 7,000 -960 Descending Denver TRACON
04:59PM 39.8000 -104.6667 360° North 142 163 6,200 -840 Descending Denver TRACON